Time;durP1;ratioP1;P1;durP2;ratioP2;P2;SDS_P1;SDS_P2;PMS_P1;PMS_P2;Temp;Humidity;BMP_temperature;BMP_pressure;BME280_temperature;BME280_humidity;BME280_pressure;Samples;Min_cycle;Max_cycle;Signal;HPM_P1;HPM_P2
2022/11/23 00:00:38;;;;;;;;;;;5.20;99.90;;;;;;5023267;28;19924;-76
2022/11/23 00:03:13;;;;;;;;;;;5.10;99.90;;;;;;5053824;28;19929;-75
2022/11/23 00:05:44;;;;;;;;;;;5.10;99.90;;;;;;5012490;28;19928;-75
2022/11/23 00:08:16;;;;;;;;;;;5.10;99.90;;;;;;5017731;28;19929;-75
2022/11/23 00:10:42;;;;;;;;;;;5.10;99.90;;;;;;5042993;28;19928;-75
2022/11/23 00:13:14;;;;;;;;;;;5.10;99.90;;;;;;5019833;28;19975;-74
2022/11/23 00:15:45;;;;;;;;;;;5.10;99.90;;;;;;5019538;28;19929;-74
2022/11/23 00:18:17;;;;;;;;;;;5.10;99.90;;;;;;5033735;28;19970;-74
2022/11/23 00:20:49;;;;;;;;;;;5.10;99.90;;;;;;5043842;28;19929;-74
2022/11/23 00:23:15;;;;;;;;;;;5.10;99.90;;;;;;5035732;28;19929;-74
2022/11/23 00:25:47;;;;;;;;;;;5.10;99.90;;;;;;5044120;28;20410;-77
2022/11/23 00:28:18;;;;;;;;;;;5.10;99.90;;;;;;5051417;28;19935;-74
2022/11/23 00:30:50;;;;;;;;;;;5.10;99.90;;;;;;5038476;28;19994;-74
2022/11/23 00:33:21;;;;;;;;;;;5.20;99.90;;;;;;5031854;28;19947;-75
2022/11/23 00:36:02;;;;;;;;;;;5.20;99.90;;;;;;5033772;28;20047;-73
2022/11/23 00:38:34;;;;;;;;;;;5.20;99.90;;;;;;5028227;28;19925;-75
2022/11/23 00:41:07;;;;;;;;;;;5.20;99.90;;;;;;5047477;28;19936;-74
2022/11/23 00:43:38;;;;;;;;;;;5.20;99.90;;;;;;5018797;28;19925;-74
2022/11/23 00:46:17;;;;;;;;;;;5.20;99.90;;;;;;5026576;28;20076;-74
2022/11/23 00:48:50;;;;;;;;;;;5.20;99.90;;;;;;5038706;28;19925;-73
2022/11/23 00:51:22;;;;;;;;;;;5.20;99.90;;;;;;5035268;28;19971;-73
2022/11/23 00:53:54;;;;;;;;;;;5.20;99.90;;;;;;5043471;28;19929;-74
2022/11/23 00:56:26;;;;;;;;;;;5.20;99.90;;;;;;5034666;28;19932;-74
2022/11/23 00:58:58;;;;;;;;;;;5.20;99.90;;;;;;5030582;28;20407;-73
2022/11/23 01:01:35;;;;;;;;;;;5.20;99.90;;;;;;5034052;28;19986;-74
2022/11/23 01:04:07;;;;;;;;;;;5.10;99.90;;;;;;5048382;28;19929;-74
2022/11/23 01:06:36;;;;;;;;;;;5.10;99.90;;;;;;5030547;28;19924;-74
2022/11/23 01:09:12;;;;;;;;;;;5.10;99.90;;;;;;5025493;28;19987;-74
2022/11/23 01:11:39;;;;;;;;;;;5.10;99.90;;;;;;5034537;28;19963;-74
2022/11/23 01:14:06;;;;;;;;;;;5.20;99.90;;;;;;5018564;28;20291;-74
2022/11/23 01:16:39;;;;;;;;;;;5.10;99.90;;;;;;5018763;28;19925;-75
2022/11/23 01:19:10;;;;;;;;;;;5.10;99.90;;;;;;5034023;28;19932;-72
2022/11/23 01:21:42;;;;;;;;;;;5.10;99.90;;;;;;5018946;28;19925;-72
2022/11/23 01:24:15;;;;;;;;;;;5.10;99.90;;;;;;5052672;28;19925;-73
2022/11/23 01:26:51;;;;;;;;;;;5.10;99.90;;;;;;5034090;28;19929;-73
2022/11/23 01:29:22;;;;;;;;;;;5.10;99.90;;;;;;5051435;28;19928;-74
2022/11/23 01:31:49;;;;;;;;;;;5.10;99.90;;;;;;5018056;28;19924;-74
2022/11/23 01:34:16;;;;;;;;;;;5.10;99.90;;;;;;5022794;28;20567;-73
2022/11/23 01:36:49;;;;;;;;;;;5.10;99.90;;;;;;5017926;28;20288;-74
2022/11/23 01:39:20;;;;;;;;;;;5.10;99.90;;;;;;5030524;28;19925;-74
2022/11/23 01:41:52;;;;;;;;;;;5.10;99.90;;;;;;5015205;28;19925;-74
2022/11/23 01:44:28;;;;;;;;;;;5.10;99.90;;;;;;5047388;28;19983;-74
2022/11/23 01:47:04;;;;;;;;;;;5.10;99.90;;;;;;5051868;28;19982;-74
2022/11/23 01:49:39;;;;;;;;;;;5.10;99.90;;;;;;5047456;28;19947;-74
2022/11/23 01:52:16;;;;;;;;;;;5.10;99.90;;;;;;5023027;28;20295;-74
2022/11/23 01:54:49;;;;;;;;;;;5.10;99.90;;;;;;5018468;28;20303;-73
2022/11/23 01:57:27;;;;;;;;;;;5.10;99.90;;;;;;5033712;28;19928;-73
2022/11/23 01:59:59;;;;;;;;;;;5.10;99.90;;;;;;5033546;28;19935;-73
2022/11/23 02:02:41;;;;;;;;;;;5.10;99.90;;;;;;5029558;28;19929;-73
2022/11/23 02:05:14;;;;;;;;;;;5.10;99.90;;;;;;5017843;28;19963;-73
2022/11/23 02:07:48;;;;;;;;;;;5.10;99.90;;;;;;5031860;28;19931;-71
2022/11/23 02:10:21;;;;;;;;;;;5.10;99.90;;;;;;5034050;28;19924;-75
2022/11/23 02:12:48;;;;;;;;;;;5.10;99.90;;;;;;5029259;28;19929;-74
2022/11/23 02:15:15;;;;;;;;;;;5.10;99.90;;;;;;5025848;28;20292;-72
2022/11/23 02:17:48;;;;;;;;;;;5.10;99.90;;;;;;5028348;28;20030;-72
2022/11/23 02:20:19;;;;;;;;;;;5.10;99.90;;;;;;5017488;28;19982;-75
2022/11/23 02:22:51;;;;;;;;;;;5.10;99.90;;;;;;5033167;28;19928;-74
2022/11/23 02:25:29;;;;;;;;;;;5.10;99.90;;;;;;5017692;28;19954;-73
2022/11/23 02:28:01;;;;;;;;;;;5.00;99.90;;;;;;5016043;28;19935;-73
2022/11/23 02:30:33;;;;;;;;;;;5.00;99.90;;;;;;5017429;28;19928;-73
2022/11/23 02:33:05;;;;;;;;;;;5.00;99.90;;;;;;5047106;28;20342;-73
2022/11/23 02:35:46;;;;;;;;;;;5.00;99.90;;;;;;5026433;28;19925;-74
2022/11/23 02:38:18;;;;;;;;;;;5.00;99.90;;;;;;5030756;28;20384;-72
2022/11/23 02:40:49;;;;;;;;;;;5.00;99.90;;;;;;5026539;28;19925;-73
2022/11/23 02:43:21;;;;;;;;;;;4.90;99.90;;;;;;5016810;28;20354;-74
2022/11/23 02:46:00;;;;;;;;;;;4.90;99.90;;;;;;5050875;28;20406;-73
2022/11/23 02:48:27;;;;;;;;;;;4.90;99.90;;;;;;5023973;28;20308;-73
2022/11/23 02:51:02;;;;;;;;;;;4.90;99.90;;;;;;5030983;28;19925;-74
2022/11/23 02:53:34;;;;;;;;;;;4.90;99.90;;;;;;5032734;28;19928;-73
2022/11/23 02:56:08;;;;;;;;;;;4.90;99.90;;;;;;5032572;28;19924;-73
2022/11/23 02:58:39;;;;;;;;;;;4.90;99.90;;;;;;5031467;28;20026;-73
2022/11/23 03:01:11;;;;;;;;;;;4.90;99.90;;;;;;5033005;28;19940;-74
2022/11/23 03:03:45;;;;;;;;;;;4.90;99.90;;;;;;5028972;28;19928;-74
2022/11/23 03:06:16;;;;;;;;;;;4.90;99.90;;;;;;5042824;28;19995;-73
2022/11/23 03:08:48;;;;;;;;;;;4.90;99.90;;;;;;5014895;28;19979;-74
2022/11/23 03:11:20;;;;;;;;;;;4.80;99.90;;;;;;5013487;28;19961;-74
2022/11/23 03:13:52;;;;;;;;;;;4.90;99.90;;;;;;5032719;28;19955;-74
2022/11/23 03:16:23;;;;;;;;;;;4.90;99.90;;;;;;5050307;28;19933;-74
2022/11/23 03:18:55;;;;;;;;;;;4.90;99.90;;;;;;5031463;28;19944;-74
2022/11/23 03:21:27;;;;;;;;;;;4.90;99.90;;;;;;5032738;28;19928;-75
2022/11/23 03:24:05;;;;;;;;;;;4.80;99.90;;;;;;5015381;28;20390;-73
2022/11/23 03:26:36;;;;;;;;;;;4.90;99.90;;;;;;5020330;28;20019;-73
2022/11/23 03:29:11;;;;;;;;;;;4.80;99.90;;;;;;5022385;28;20310;-74
2022/11/23 03:31:43;;;;;;;;;;;4.90;99.90;;;;;;5020274;28;19924;-74
2022/11/23 03:34:17;;;;;;;;;;;4.90;99.90;;;;;;5035331;28;20303;-74
2022/11/23 03:36:49;;;;;;;;;;;4.90;99.90;;;;;;5031743;28;19936;-74
2022/11/23 03:39:21;;;;;;;;;;;4.90;99.90;;;;;;5030471;28;19935;-74
2022/11/23 03:41:47;;;;;;;;;;;4.90;99.90;;;;;;5053554;28;19924;-74
2022/11/23 03:44:22;;;;;;;;;;;4.90;99.90;;;;;;5014574;28;19929;-74
2022/11/23 03:46:54;;;;;;;;;;;4.90;99.90;;;;;;5035337;28;19935;-74
2022/11/23 03:49:21;;;;;;;;;;;4.90;99.90;;;;;;5020209;28;20283;-74
2022/11/23 03:51:52;;;;;;;;;;;4.90;99.90;;;;;;5028304;28;19928;-74
2022/11/23 03:54:26;;;;;;;;;;;4.90;99.90;;;;;;5035695;28;19978;-74
2022/11/23 03:56:53;;;;;;;;;;;4.90;99.90;;;;;;5015685;28;19929;-74
2022/11/23 03:59:24;;;;;;;;;;;4.90;99.90;;;;;;5017160;28;19933;-74
2022/11/23 04:01:56;;;;;;;;;;;4.90;99.90;;;;;;5030884;28;19932;-74
2022/11/23 04:04:26;;;;;;;;;;;4.90;99.90;;;;;;5019371;28;19928;-74
2022/11/23 04:07:04;;;;;;;;;;;4.90;99.90;;;;;;5031564;28;19925;-74
2022/11/23 04:09:36;;;;;;;;;;;4.90;99.90;;;;;;5018174;28;19935;-74
2022/11/23 04:12:26;;;;;;;;;;;4.90;99.90;;;;;;5038866;28;19935;-74
2022/11/23 04:14:58;;;;;;;;;;;4.90;99.90;;;;;;5012870;28;19936;-74
2022/11/23 04:17:29;;;;;;;;;;;4.90;99.90;;;;;;5027979;28;19939;-73
2022/11/23 04:19:57;;;;;;;;;;;4.90;99.90;;;;;;5014009;28;19924;-74
2022/11/23 04:22:23;;;;;;;;;;;4.90;99.90;;;;;;5029286;28;19929;-76
2022/11/23 04:24:55;;;;;;;;;;;4.90;99.90;;;;;;5015550;28;19925;-74
2022/11/23 04:27:27;;;;;;;;;;;4.90;99.90;;;;;;5035183;28;19929;-73
2022/11/23 04:29:53;;;;;;;;;;;5.00;99.90;;;;;;5035924;28;19935;-73
2022/11/23 04:32:26;;;;;;;;;;;5.10;99.90;;;;;;5033041;28;19929;-75
2022/11/23 04:34:58;;;;;;;;;;;5.00;99.90;;;;;;5026967;28;20268;-74
2022/11/23 04:37:30;;;;;;;;;;;5.00;99.90;;;;;;5016967;28;20269;-74
2022/11/23 04:40:02;;;;;;;;;;;5.00;99.90;;;;;;5010743;28;19935;-74
2022/11/23 04:42:39;;;;;;;;;;;4.90;99.90;;;;;;5031490;28;19990;-74
2022/11/23 04:45:10;;;;;;;;;;;4.90;99.90;;;;;;5013396;28;20398;-74
2022/11/23 04:47:42;;;;;;;;;;;4.90;99.90;;;;;;5015802;28;19925;-74
2022/11/23 04:50:15;;;;;;;;;;;4.80;99.90;;;;;;5034604;28;19929;-73
2022/11/23 04:52:50;;;;;;;;;;;4.80;99.90;;;;;;5035298;28;19925;-74
2022/11/23 04:55:29;;;;;;;;;;;4.80;99.90;;;;;;5031913;28;20359;-74
2022/11/23 04:58:01;;;;;;;;;;;4.80;99.90;;;;;;5014634;28;20007;-74
2022/11/23 05:00:33;;;;;;;;;;;4.80;99.90;;;;;;5032155;28;19974;-74
2022/11/23 05:03:05;;;;;;;;;;;4.80;99.90;;;;;;5017129;28;20457;-75
2022/11/23 05:05:39;;;;;;;;;;;4.80;99.90;;;;;;5034790;28;20422;-74
2022/11/23 05:08:12;;;;;;;;;;;4.80;99.90;;;;;;5018071;28;19929;-72
2022/11/23 05:11:07;;;;;;;;;;;4.80;99.90;;;;;;5033870;28;20386;-72
2022/11/23 05:13:40;;;;;;;;;;;4.80;99.90;;;;;;5034886;28;19964;-73
2022/11/23 05:16:13;;;;;;;;;;;4.70;99.90;;;;;;5023576;28;19932;-72
2022/11/23 05:18:45;;;;;;;;;;;4.70;99.90;;;;;;5029662;28;19928;-74
2022/11/23 05:21:16;;;;;;;;;;;4.80;99.90;;;;;;5028463;28;19925;-73
2022/11/23 05:23:48;;;;;;;;;;;4.80;99.90;;;;;;5018517;28;19928;-73
2022/11/23 05:26:20;;;;;;;;;;;4.80;99.90;;;;;;5033877;28;20043;-72
2022/11/23 05:28:51;;;;;;;;;;;4.80;99.90;;;;;;5015645;28;20033;-73
2022/11/23 05:31:23;;;;;;;;;;;4.80;99.90;;;;;;5034414;28;19933;-73
2022/11/23 05:33:50;;;;;;;;;;;4.80;99.90;;;;;;5018130;28;20019;-74
2022/11/23 05:36:33;;;;;;;;;;;4.80;99.90;;;;;;5019111;28;19964;-73
2022/11/23 05:39:05;;;;;;;;;;;4.80;99.90;;;;;;5026406;28;19975;-73
2022/11/23 05:41:37;;;;;;;;;;;4.80;99.90;;;;;;5034881;28;19925;-72
2022/11/23 05:44:22;;;;;;;;;;;4.80;99.90;;;;;;5020726;28;19929;-73
2022/11/23 05:46:54;;;;;;;;;;;4.80;99.90;;;;;;5017257;28;19936;-74
2022/11/23 05:49:30;;;;;;;;;;;4.80;99.90;;;;;;5029288;28;20258;-74
2022/11/23 05:52:03;;;;;;;;;;;4.80;99.90;;;;;;5013873;28;20016;-74
2022/11/23 05:54:37;;;;;;;;;;;4.90;99.90;;;;;;5028650;28;20237;-73
2022/11/23 05:57:12;;;;;;;;;;;4.90;99.90;;;;;;5018970;28;20322;-74
2022/11/23 05:59:44;;;;;;;;;;;4.90;99.90;;;;;;5033362;28;19928;-73
2022/11/23 06:02:19;;;;;;;;;;;4.90;99.90;;;;;;5018891;28;19968;-74
2022/11/23 06:04:57;;;;;;;;;;;4.90;99.90;;;;;;5030605;28;20012;-72
2022/11/23 06:07:38;;;;;;;;;;;4.90;99.90;;;;;;5015719;28;20358;-73
2022/11/23 06:10:12;;;;;;;;;;;4.90;99.90;;;;;;5014614;28;19935;-75
2022/11/23 06:12:48;;;;;;;;;;;4.80;99.90;;;;;;5018261;28;19924;-73
2022/11/23 06:15:22;;;;;;;;;;;4.80;99.90;;;;;;5033479;28;19931;-73
2022/11/23 06:17:49;;;;;;;;;;;4.80;99.90;;;;;;5031558;28;19967;-74
2022/11/23 06:20:20;;;;;;;;;;;4.80;99.90;;;;;;5024597;28;19932;-75
2022/11/23 06:22:59;;;;;;;;;;;4.80;99.90;;;;;;5018678;28;20379;-74
2022/11/23 06:25:32;;;;;;;;;;;4.80;99.90;;;;;;5010329;28;19933;-72
2022/11/23 06:28:12;;;;;;;;;;;4.80;99.90;;;;;;5007248;28;19925;-73
2022/11/23 06:30:46;;;;;;;;;;;4.70;99.90;;;;;;5030412;28;19986;-74
2022/11/23 06:33:18;;;;;;;;;;;4.80;99.90;;;;;;5032695;28;20032;-74
2022/11/23 06:35:56;;;;;;;;;;;4.80;99.90;;;;;;5024881;28;19929;-75
2022/11/23 06:38:34;;;;;;;;;;;4.80;99.90;;;;;;5023662;28;19929;-75
2022/11/23 06:41:17;;;;;;;;;;;4.80;99.90;;;;;;5016882;28;19928;-75
2022/11/23 06:43:49;;;;;;;;;;;4.80;99.90;;;;;;5016717;28;19960;-75
2022/11/23 06:46:32;;;;;;;;;;;4.80;99.90;;;;;;5023893;28;19929;-75
2022/11/23 06:48:59;;;;;;;;;;;4.80;99.90;;;;;;5030952;28;19929;-75
2022/11/23 06:51:26;;;;;;;;;;;4.80;99.90;;;;;;5041839;28;19932;-75
2022/11/23 06:53:57;;;;;;;;;;;4.80;99.90;;;;;;5031968;28;19925;-76
2022/11/23 06:56:30;;;;;;;;;;;4.90;99.90;;;;;;5032097;28;20403;-74
2022/11/23 06:59:02;;;;;;;;;;;4.80;99.90;;;;;;5019949;28;19929;-75
2022/11/23 07:01:29;;;;;;;;;;;4.90;99.90;;;;;;5038729;28;20044;-75
2022/11/23 07:04:05;;;;;;;;;;;4.90;99.90;;;;;;5030720;28;20342;-73
2022/11/23 07:06:45;;;;;;;;;;;4.90;99.90;;;;;;5022409;28;19925;-73
2022/11/23 07:09:22;;;;;;;;;;;4.90;99.90;;;;;;5018765;28;19939;-73
2022/11/23 07:12:26;;;;;;;;;;;4.90;99.90;;;;;;5026537;28;19932;-73
2022/11/23 07:14:59;;;;;;;;;;;4.80;99.90;;;;;;5033840;28;20370;-75
2022/11/23 07:17:30;;;;;;;;;;;4.80;99.90;;;;;;5017399;28;19932;-72
2022/11/23 07:20:01;;;;;;;;;;;4.80;99.90;;;;;;5015137;28;19924;-75
2022/11/23 07:22:33;;;;;;;;;;;4.80;99.90;;;;;;5036728;28;19924;-72
2022/11/23 07:25:00;;;;;;;;;;;4.80;99.90;;;;;;5020215;28;19935;-74
2022/11/23 07:27:32;;;;;;;;;;;4.80;99.90;;;;;;5019327;28;19933;-71
2022/11/23 07:30:06;;;;;;;;;;;4.80;99.90;;;;;;5034115;28;19931;-74
2022/11/23 07:32:33;;;;;;;;;;;4.80;99.90;;;;;;5020509;28;19928;-73
2022/11/23 07:34:59;;;;;;;;;;;4.90;99.90;;;;;;5036828;28;20316;-73
2022/11/23 07:37:34;;;;;;;;;;;4.90;99.90;;;;;;5035218;28;19925;-73
2022/11/23 07:40:06;;;;;;;;;;;4.90;99.90;;;;;;5033128;28;19980;-73
2022/11/23 07:42:34;;;;;;;;;;;5.00;99.90;;;;;;5010738;28;19925;-71
2022/11/23 07:45:06;;;;;;;;;;;5.00;99.90;;;;;;5036006;28;19932;-72
2022/11/23 07:47:43;;;;;;;;;;;5.00;99.90;;;;;;5027013;28;19929;-71
2022/11/23 07:50:14;;;;;;;;;;;5.00;99.90;;;;;;5021599;28;19994;-72
2022/11/23 07:52:46;;;;;;;;;;;5.10;99.90;;;;;;5049196;28;19928;-73
2022/11/23 07:55:17;;;;;;;;;;;5.10;99.90;;;;;;5012598;28;20753;-73
2022/11/23 07:57:53;;;;;;;;;;;5.10;99.90;;;;;;5029465;28;19929;-73
2022/11/23 08:00:20;;;;;;;;;;;5.20;99.90;;;;;;5029301;28;19983;-75
2022/11/23 08:02:52;;;;;;;;;;;5.20;99.90;;;;;;5025709;28;20379;-73
2022/11/23 08:05:25;;;;;;;;;;;5.20;99.90;;;;;;5019401;28;19929;-74
2022/11/23 08:07:56;;;;;;;;;;;5.30;99.90;;;;;;5027507;28;19928;-74
2022/11/23 08:10:29;;;;;;;;;;;5.30;99.90;;;;;;5022616;28;19925;-74
2022/11/23 08:13:02;;;;;;;;;;;5.40;99.90;;;;;;5017382;28;19925;-73
2022/11/23 08:15:34;;;;;;;;;;;5.40;99.90;;;;;;5027020;28;19925;-74
2022/11/23 08:18:05;;;;;;;;;;;5.40;99.90;;;;;;5024469;28;20391;-75
2022/11/23 08:20:37;;;;;;;;;;;5.50;99.90;;;;;;5020880;28;19926;-75
2022/11/23 08:23:04;;;;;;;;;;;5.50;99.90;;;;;;5018047;28;20445;-75
2022/11/23 08:25:30;;;;;;;;;;;5.60;99.90;;;;;;5029440;28;19928;-76
2022/11/23 08:28:02;;;;;;;;;;;5.60;99.90;;;;;;5024179;28;19925;-73
2022/11/23 08:30:34;;;;;;;;;;;5.70;99.90;;;;;;5023563;28;19936;-72
2022/11/23 08:33:07;;;;;;;;;;;5.70;99.90;;;;;;5032308;28;20388;-72
2022/11/23 08:35:35;;;;;;;;;;;5.80;99.90;;;;;;5012087;28;19929;-77
2022/11/23 08:38:02;;;;;;;;;;;5.90;99.90;;;;;;5028368;28;19933;-74
2022/11/23 08:40:29;;;;;;;;;;;6.00;99.90;;;;;;5028443;28;19925;-73
2022/11/23 08:43:00;;;;;;;;;;;6.10;99.90;;;;;;5022572;28;19925;-74
2022/11/23 08:45:27;;;;;;;;;;;6.10;99.90;;;;;;5025210;28;20338;-73
2022/11/23 08:47:59;;;;;;;;;;;6.30;99.90;;;;;;5026316;28;19925;-72
2022/11/23 08:50:33;;;;;;;;;;;6.40;99.90;;;;;;5030088;28;19925;-74
2022/11/23 08:53:04;;;;;;;;;;;6.40;99.90;;;;;;5024034;28;20306;-74
2022/11/23 08:55:31;;;;;;;;;;;6.50;99.90;;;;;;5040785;28;19924;-74
2022/11/23 08:58:02;;;;;;;;;;;6.50;99.90;;;;;;5025759;28;20442;-73
2022/11/23 09:00:34;;;;;;;;;;;6.60;99.90;;;;;;5015975;28;19925;-73
2022/11/23 09:03:01;;;;;;;;;;;6.60;99.90;;;;;;5026951;28;19937;-74
2022/11/23 09:05:32;;;;;;;;;;;6.60;99.90;;;;;;5014141;28;19929;-74
2022/11/23 09:07:59;;;;;;;;;;;6.60;99.90;;;;;;5029398;28;19924;-72
2022/11/23 09:10:31;;;;;;;;;;;6.70;99.90;;;;;;5022455;28;20291;-74
2022/11/23 09:13:03;;;;;;;;;;;6.70;99.90;;;;;;5000456;28;19951;-73
2022/11/23 09:15:35;;;;;;;;;;;6.70;99.90;;;;;;5023102;28;20319;-72
2022/11/23 09:18:06;;;;;;;;;;;6.70;99.90;;;;;;5027965;28;19958;-73
2022/11/23 09:20:33;;;;;;;;;;;6.70;99.90;;;;;;5034653;28;20333;-74
2022/11/23 09:23:04;;;;;;;;;;;6.80;99.90;;;;;;5033738;28;19925;-73
2022/11/23 09:25:36;;;;;;;;;;;6.80;99.90;;;;;;5013120;28;19971;-74
2022/11/23 09:28:08;;;;;;;;;;;6.90;99.90;;;;;;5028882;28;19925;-74
2022/11/23 09:30:40;;;;;;;;;;;6.90;99.90;;;;;;5031674;28;20349;-74
2022/11/23 09:33:12;;;;;;;;;;;6.90;99.90;;;;;;5014624;28;20388;-73
2022/11/23 09:35:43;;;;;;;;;;;6.90;99.90;;;;;;5048085;28;19937;-73
2022/11/23 09:38:15;;;;;;;;;;;6.90;99.90;;;;;;5044217;28;19974;-74
2022/11/23 09:40:50;;;;;;;;;;;7.00;99.90;;;;;;5043203;28;20388;-73
2022/11/23 09:43:33;;;;;;;;;;;7.00;99.90;;;;;;5030414;28;19951;-74
2022/11/23 09:46:12;;;;;;;;;;;7.00;99.90;;;;;;5045359;28;19932;-72
2022/11/23 09:48:44;;;;;;;;;;;7.10;99.90;;;;;;5010341;28;19924;-73
2022/11/23 09:51:19;;;;;;;;;;;7.10;99.90;;;;;;5027380;28;19925;-72
2022/11/23 09:53:54;;;;;;;;;;;7.10;99.90;;;;;;5029084;28;20350;-75
2022/11/23 09:56:26;;;;;;;;;;;7.20;99.90;;;;;;5009541;28;19971;-72
2022/11/23 09:59:00;;;;;;;;;;;7.30;99.90;;;;;;5014084;28;19925;-73
2022/11/23 10:01:32;;;;;;;;;;;7.30;99.90;;;;;;5024925;28;19925;-72
2022/11/23 10:04:03;;;;;;;;;;;7.30;99.90;;;;;;5036261;28;19929;-71
2022/11/23 10:06:33;;;;;;;;;;;7.40;99.90;;;;;;5028025;28;19925;-72
2022/11/23 10:09:23;;;;;;;;;;;7.40;99.90;;;;;;5023195;28;19979;-74
2022/11/23 10:12:00;;;;;;;;;;;7.50;99.90;;;;;;5021693;28;19929;-74
2022/11/23 10:14:38;;;;;;;;;;;7.50;99.90;;;;;;5019533;28;19925;-74
2022/11/23 10:17:16;;;;;;;;;;;7.60;99.90;;;;;;5017359;28;20395;-73
2022/11/23 10:19:57;;;;;;;;;;;7.80;99.90;;;;;;5012484;28;20338;-73
2022/11/23 10:22:48;;;;;;;;;;;7.80;99.90;;;;;;5038250;28;19950;-73
2022/11/23 10:25:20;;;;;;;;;;;7.80;99.90;;;;;;5036194;28;19929;-72
2022/11/23 10:27:47;;;;;;;;;;;7.80;99.90;;;;;;5005676;28;19979;-73
2022/11/23 10:30:15;;;;;;;;;;;7.90;99.90;;;;;;5010770;28;19994;-71
2022/11/23 10:32:56;;;;;;;;;;;7.90;99.90;;;;;;5041365;28;19925;-74
2022/11/23 10:35:29;;;;;;;;;;;8.00;99.90;;;;;;5026093;28;19932;-73
2022/11/23 10:38:16;;;;;;;;;;;8.00;99.90;;;;;;5014944;28;19975;-74
2022/11/23 10:41:02;;;;;;;;;;;8.10;99.90;;;;;;5029413;28;19924;-74
2022/11/23 10:43:37;;;;;;;;;;;8.10;99.90;;;;;;5037860;28;19978;-75
2022/11/23 10:46:22;;;;;;;;;;;8.10;99.90;;;;;;5054815;28;20383;-74
2022/11/23 10:48:54;;;;;;;;;;;8.10;99.90;;;;;;5038668;28;19929;-75
2022/11/23 10:51:28;;;;;;;;;;;8.20;99.90;;;;;;5056259;28;19931;-73
2022/11/23 10:54:05;;;;;;;;;;;8.20;99.90;;;;;;5038236;28;19998;-73
2022/11/23 10:56:44;;;;;;;;;;;8.20;99.90;;;;;;5022049;28;20292;-74
2022/11/23 10:59:25;;;;;;;;;;;8.10;99.90;;;;;;5020801;28;19933;-76
2022/11/23 11:02:00;;;;;;;;;;;8.10;99.90;;;;;;5018161;28;19925;-75
2022/11/23 11:04:27;;;;;;;;;;;8.20;99.90;;;;;;5037755;28;19925;-75
2022/11/23 11:07:19;;;;;;;;;;;8.30;99.90;;;;;;5052861;28;19929;-72
2022/11/23 11:09:59;;;;;;;;;;;8.50;99.90;;;;;;5034143;28;19925;-73
2022/11/23 11:12:27;;;;;;;;;;;8.50;99.90;;;;;;5032803;28;20019;-76
2022/11/23 11:15:02;;;;;;;;;;;8.60;99.90;;;;;;5021760;28;20055;-75
2022/11/23 11:17:30;;;;;;;;;;;8.70;99.90;;;;;;5054477;28;19929;-75
2022/11/23 11:20:21;;;;;;;;;;;8.80;99.90;;;;;;5037632;28;19928;-73
2022/11/23 11:22:48;;;;;;;;;;;9.00;99.90;;;;;;5031927;28;19929;-75
2022/11/23 11:25:36;;;;;;;;;;;9.20;99.90;;;;;;5021205;28;19928;-75
2022/11/23 11:28:04;;;;;;;;;;;9.30;99.90;;;;;;5054165;28;19931;-74
2022/11/23 11:30:44;;;;;;;;;;;9.40;99.90;;;;;;5020151;28;19979;-75
2022/11/23 11:33:24;;;;;;;;;;;9.30;99.90;;;;;;5034130;28;20347;-75
2022/11/23 11:35:52;;;;;;;;;;;9.20;99.90;;;;;;5035558;28;19929;-74
2022/11/23 11:38:28;;;;;;;;;;;9.10;99.90;;;;;;5036721;28;19925;-74
2022/11/23 11:40:56;;;;;;;;;;;8.90;99.90;;;;;;5013149;28;19952;-74
2022/11/23 11:43:39;;;;;;;;;;;8.80;99.90;;;;;;5016657;28;19929;-75
2022/11/23 11:46:13;;;;;;;;;;;8.70;99.90;;;;;;5034645;28;19935;-74
2022/11/23 11:48:42;;;;;;;;;;;8.60;99.90;;;;;;5035438;28;19983;-75
2022/11/23 11:51:23;;;;;;;;;;;8.50;99.90;;;;;;5026136;28;19982;-73
2022/11/23 11:54:00;;;;;;;;;;;8.50;99.90;;;;;;5023354;28;19929;-76
2022/11/23 11:56:31;;;;;;;;;;;8.40;99.90;;;;;;5028125;28;19929;-73
2022/11/23 11:59:04;;;;;;;;;;;8.40;99.90;;;;;;5010694;28;19978;-74
2022/11/23 12:01:39;;;;;;;;;;;8.40;99.90;;;;;;5031994;28;19925;-73
2022/11/23 12:04:14;;;;;;;;;;;8.50;99.90;;;;;;5034936;28;20346;-73
2022/11/23 12:06:50;;;;;;;;;;;8.50;99.90;;;;;;5044919;28;20457;-73
2022/11/23 12:09:24;;;;;;;;;;;8.60;99.90;;;;;;5028521;28;20393;-74
2022/11/23 12:11:57;;;;;;;;;;;8.70;99.90;;;;;;5020838;28;19925;-74
2022/11/23 12:14:28;;;;;;;;;;;8.80;99.90;;;;;;5024656;28;19983;-73
2022/11/23 12:17:18;;;;;;;;;;;8.90;99.90;;;;;;5046251;28;19924;-73
2022/11/23 12:19:51;;;;;;;;;;;9.00;99.90;;;;;;5043127;28;20651;-73
2022/11/23 12:22:35;;;;;;;;;;;9.20;99.90;;;;;;5034101;28;19932;-74
2022/11/23 12:25:10;;;;;;;;;;;9.30;99.90;;;;;;5019665;28;19924;-73
2022/11/23 12:27:41;;;;;;;;;;;9.40;99.90;;;;;;5053496;28;20618;-73
2022/11/23 12:30:16;;;;;;;;;;;9.60;99.90;;;;;;5036553;28;19929;-73
2022/11/23 12:32:51;;;;;;;;;;;9.60;99.90;;;;;;5036466;28;19982;-74
2022/11/23 12:35:29;;;;;;;;;;;9.70;99.90;;;;;;5036254;28;19971;-73
2022/11/23 12:38:20;;;;;;;;;;;9.80;99.90;;;;;;5019292;28;19973;-73
2022/11/23 12:41:10;;;;;;;;;;;9.90;99.90;;;;;;5011453;28;19979;-73
2022/11/23 12:43:42;;;;;;;;;;;9.80;99.90;;;;;;5034347;28;19933;-73
2022/11/23 12:46:18;;;;;;;;;;;9.80;99.90;;;;;;5003627;28;19974;-73
2022/11/23 12:48:49;;;;;;;;;;;9.80;99.90;;;;;;5011242;28;19933;-72
2022/11/23 12:51:27;;;;;;;;;;;9.80;99.90;;;;;;5032709;28;19925;-75
2022/11/23 12:54:01;;;;;;;;;;;9.90;99.90;;;;;;5049676;28;20046;-74
2022/11/23 12:56:36;;;;;;;;;;;10.00;99.90;;;;;;5032706;28;19933;-74
2022/11/23 12:59:03;;;;;;;;;;;9.90;99.90;;;;;;5012236;28;20334;-72
2022/11/23 13:01:38;;;;;;;;;;;9.90;99.90;;;;;;5027256;28;20315;-73
2022/11/23 13:04:28;;;;;;;;;;;9.90;99.90;;;;;;5046538;28;19925;-73
2022/11/23 13:07:14;;;;;;;;;;;10.00;99.90;;;;;;5052058;28;19929;-75
2022/11/23 13:09:45;;;;;;;;;;;9.90;99.90;;;;;;5051788;28;19932;-74
2022/11/23 13:12:25;;;;;;;;;;;9.90;99.90;;;;;;5052583;28;19962;-72
2022/11/23 13:15:09;;;;;;;;;;;9.80;99.90;;;;;;5034792;28;19924;-73
2022/11/23 13:18:00;;;;;;;;;;;9.90;99.90;;;;;;5051394;28;19925;-73
2022/11/23 13:20:56;;;;;;;;;;;10.00;99.90;;;;;;5048859;28;19929;-73
2022/11/23 13:23:33;;;;;;;;;;;9.90;99.90;;;;;;5031521;28;20265;-74
2022/11/23 13:26:19;;;;;;;;;;;9.90;99.90;;;;;;5019878;28;19952;-72
2022/11/23 13:28:51;;;;;;;;;;;9.90;99.90;;;;;;5051940;28;19925;-73
2022/11/23 13:31:19;;;;;;;;;;;10.00;99.90;;;;;;5034569;28;20280;-73
2022/11/23 13:33:53;;;;;;;;;;;9.90;99.90;;;;;;5052554;28;20035;-72
2022/11/23 13:36:28;;;;;;;;;;;9.90;99.90;;;;;;5035156;28;19933;-72
2022/11/23 13:39:00;;;;;;;;;;;9.90;99.90;;;;;;5014294;28;20347;-74
2022/11/23 13:41:32;;;;;;;;;;;9.90;99.90;;;;;;5015727;28;19929;-72
2022/11/23 13:44:18;;;;;;;;;;;9.90;99.90;;;;;;5043146;28;20288;-73
2022/11/23 13:46:55;;;;;;;;;;;9.90;99.90;;;;;;5035134;28;19991;-74
2022/11/23 13:49:33;;;;;;;;;;;9.90;99.90;;;;;;5035380;28;20399;-74
2022/11/23 13:52:14;;;;;;;;;;;9.90;99.90;;;;;;5031278;28;20281;-71
2022/11/23 13:55:05;;;;;;;;;;;10.00;99.90;;;;;;5031786;28;20280;-72
2022/11/23 13:57:37;;;;;;;;;;;10.00;99.90;;;;;;5033136;28;19925;-73
2022/11/23 14:00:28;;;;;;;;;;;10.00;99.90;;;;;;5029498;28;19975;-72
2022/11/23 14:03:14;;;;;;;;;;;9.90;99.90;;;;;;5025824;28;19929;-75
2022/11/23 14:05:47;;;;;;;;;;;9.80;99.90;;;;;;5033291;28;19939;-73
2022/11/23 14:08:19;;;;;;;;;;;9.70;99.90;;;;;;5017209;28;20395;-75
2022/11/23 14:10:51;;;;;;;;;;;9.60;99.90;;;;;;5018162;28;20330;-73
2022/11/23 14:13:24;;;;;;;;;;;9.40;99.90;;;;;;5051870;28;19925;-73
2022/11/23 14:16:00;;;;;;;;;;;9.20;99.90;;;;;;5051833;28;19975;-74
2022/11/23 14:18:30;;;;;;;;;;;9.10;99.90;;;;;;5044934;28;19943;-74
2022/11/23 14:21:17;;;;;;;;;;;9.10;99.90;;;;;;5028473;28;19971;-73
2022/11/23 14:24:07;;;;;;;;;;;8.90;99.90;;;;;;5046541;28;19924;-74
2022/11/23 14:26:34;;;;;;;;;;;8.90;99.90;;;;;;5046283;28;19936;-73
2022/11/23 14:29:24;;;;;;;;;;;8.90;99.90;;;;;;5025054;28;19929;-73
2022/11/23 14:31:56;;;;;;;;;;;8.70;99.90;;;;;;5031326;28;19970;-74
2022/11/23 14:34:30;;;;;;;;;;;8.60;99.90;;;;;;5004362;28;19929;-75
2022/11/23 14:37:20;;;;;;;;;;;8.50;99.90;;;;;;4998636;28;19952;-73
2022/11/23 14:39:58;;;;;;;;;;;8.30;99.90;;;;;;5006429;28;19928;-74
2022/11/23 14:42:30;;;;;;;;;;;8.20;99.90;;;;;;5041396;28;20003;-74
2022/11/23 14:45:00;;;;;;;;;;;8.20;99.90;;;;;;5016113;28;19929;-74
2022/11/23 14:47:31;;;;;;;;;;;7.90;99.90;;;;;;5008337;28;19979;-71
2022/11/23 14:49:58;;;;;;;;;;;7.90;99.90;;;;;;5009396;28;19929;-74
2022/11/23 14:52:29;;;;;;;;;;;7.90;99.90;;;;;;5041495;28;19932;-76
2022/11/23 14:54:57;;;;;;;;;;;8.00;99.90;;;;;;5041334;28;20387;-74
2022/11/23 14:57:36;;;;;;;;;;;7.90;99.90;;;;;;5009673;28;19976;-72
2022/11/23 15:00:40;;;;;;;;;;;7.90;99.90;;;;;;5041372;28;19975;-76
2022/11/23 15:03:14;;;;;;;;;;;7.80;99.90;;;;;;4976605;28;19929;-75
2022/11/23 15:05:48;;;;;;;;;;;7.80;99.90;;;;;;5030980;28;19974;-71
2022/11/23 15:08:31;;;;;;;;;;;7.50;99.90;;;;;;5017952;28;19929;-74